createdAt,value
2019-02-11T00:01:05.685Z,99689.11
2019-02-11T00:03:48.188Z,99694.67
2019-02-11T00:06:37.835Z,99730.80
2019-02-11T00:09:20.239Z,99732.84
2019-02-11T00:12:09.508Z,99721.02
2019-02-11T00:14:52.724Z,99739.77
2019-02-11T00:17:42.074Z,99750.52
2019-02-11T00:20:24.586Z,99718.39
2019-02-11T00:23:13.803Z,99728.59
2019-02-11T00:25:55.411Z,99737.27
2019-02-11T00:31:53.017Z,99741.83
2019-02-11T00:34:34.867Z,99780.91
2019-02-11T00:37:24.228Z,99790.89
2019-02-11T00:40:06.635Z,99796.03
2019-02-11T00:45:43.641Z,99805.72
2019-02-11T00:48:33.051Z,99797.29
2019-02-11T00:51:14.843Z,99796.67
2019-02-11T00:53:45.172Z,99833.30
2019-02-11T00:59:29.745Z,99819.16
2019-02-11T01:02:12.989Z,99823.39
2019-02-11T01:08:06.083Z,99842.64
2019-02-11T01:10:55.406Z,99878.63
2019-02-11T01:13:37.031Z,99876.84
2019-02-11T01:16:26.381Z,99857.68
2019-02-11T01:19:16.012Z,99865.08
2019-02-11T01:21:50.336Z,99897.91
2019-02-11T01:27:16.114Z,99910.99
2019-02-11T01:30:09.168Z,99884.33
2019-02-11T01:32:58.797Z,99924.93
2019-02-11T01:35:40.582Z,99930.41
2019-02-11T01:38:30.254Z,99934.64
2019-02-11T01:41:12.227Z,99932.83
2019-02-11T01:44:01.636Z,99941.41
2019-02-11T01:46:43.406Z,99920.44
2019-02-11T01:49:33.023Z,99953.09
2019-02-11T01:52:14.785Z,99955.17
2019-02-11T01:54:57.848Z,99940.28
2019-02-11T02:00:36.619Z,99980.87
2019-02-11T02:03:25.982Z,99952.88
2019-02-11T02:06:07.847Z,99991.00
2019-02-11T02:08:57.178Z,99963.23
2019-02-11T02:11:39.745Z,99967.47
2019-02-11T02:14:28.994Z,99968.06
2019-02-11T02:17:12.049Z,100001.83
2019-02-11T02:23:03.111Z,99994.37
2019-02-11T02:28:52.988Z,99993.08
2019-02-11T02:31:42.350Z,100026.66
2019-02-11T02:34:24.305Z,99995.48
2019-02-11T02:37:08.256Z,100001.91
2019-02-11T02:42:52.336Z,100040.39
2019-02-11T02:45:42.161Z,100048.52
2019-02-11T02:48:24.772Z,100025.86
2019-02-11T02:51:33.266Z,100064.41
2019-02-11T02:54:15.126Z,100052.62
2019-02-11T02:56:57.843Z,100063.48
2019-02-11T03:00:00.703Z,100067.39
2019-02-11T03:02:31.072Z,100068.19
2019-02-11T03:05:20.381Z,100061.89
2019-02-11T03:08:02.357Z,100075.16
2019-02-11T03:10:51.687Z,100101.13
2019-02-11T03:13:23.139Z,100107.71
2019-02-11T03:16:12.472Z,100076.98
2019-02-11T03:18:54.543Z,100090.24
2019-02-11T03:21:43.904Z,100081.23
2019-02-11T03:24:27.335Z,100122.94
2019-02-11T03:27:16.672Z,100125.73
2019-02-11T03:30:03.369Z,100116.11
2019-02-11T03:35:53.765Z,100112.28
2019-02-11T03:38:43.125Z,100143.05
2019-02-11T03:41:25.671Z,100125.02
2019-02-11T03:44:15.440Z,100158.53
2019-02-11T03:47:00.051Z,100133.47
2019-02-11T03:49:49.348Z,100138.91
2019-02-11T03:52:31.619Z,100171.98
2019-02-11T03:55:20.958Z,100139.23
2019-02-11T03:58:03.185Z,100148.25
2019-02-11T04:01:06.367Z,100153.55
2019-02-11T04:03:36.167Z,100159.05
2019-02-11T04:06:26.051Z,100190.18
2019-02-11T04:09:08.368Z,100201.48
2019-02-11T04:14:58.941Z,100170.21
2019-02-11T04:20:49.253Z,100215.66
2019-02-11T04:23:38.907Z,100193.80
2019-02-11T04:26:22.093Z,100204.31
2019-02-11T04:32:13.796Z,100218.55
2019-02-11T04:37:52.411Z,100262.44
2019-02-11T04:44:07.343Z,100245.70
2019-02-11T04:49:47.117Z,100264.77
2019-02-11T04:52:36.700Z,100260.42
2019-02-11T04:55:26.835Z,100274.83
2019-02-11T04:58:09.160Z,100271.58
2019-02-11T05:03:50.589Z,100301.41
2019-02-11T05:09:35.991Z,100318.91
2019-02-11T05:12:25.788Z,100289.58
2019-02-11T05:15:08.879Z,100296.86
2019-02-11T05:17:58.768Z,100301.41
2019-02-11T05:20:43.103Z,100342.31
2019-02-11T05:23:32.680Z,100317.51
2019-02-11T05:26:15.160Z,100343.00
2019-02-11T05:32:09.760Z,100334.41
2019-02-11T05:34:59.375Z,100340.22
2019-02-11T05:37:44.066Z,100376.40
2019-02-11T05:40:33.322Z,100349.61
2019-02-11T05:43:15.121Z,100382.05
2019-02-11T05:49:05.422Z,100397.59
2019-02-11T05:52:08.709Z,100398.58
2019-02-11T05:57:49.170Z,100371.61
2019-02-11T06:00:31.637Z,100378.75
2019-02-11T06:03:01.943Z,100420.91
2019-02-11T06:05:51.315Z,100391.97
2019-02-11T06:08:40.673Z,100420.95
2019-02-11T06:11:22.180Z,100436.28
2019-02-11T06:14:11.925Z,100439.55
2019-02-11T06:16:53.813Z,100426.45
2019-02-11T06:22:33.062Z,100431.00
2019-02-11T06:25:22.435Z,100432.94
2019-02-11T06:28:04.926Z,100477.22
2019-02-11T06:33:56.375Z,100453.15
2019-02-11T06:39:34.666Z,100471.28
2019-02-11T06:42:24.048Z,100512.86
2019-02-11T06:45:12.853Z,100484.36
2019-02-11T06:47:50.088Z,100494.55
2019-02-11T06:50:39.645Z,100504.25
2019-02-11T06:53:22.310Z,100507.98
2019-02-11T06:59:15.491Z,100562.69
2019-02-11T07:01:57.741Z,100547.12
2019-02-11T07:10:31.378Z,100569.92
2019-02-11T07:13:21.032Z,100567.48
2019-02-11T07:16:04.223Z,100587.73
2019-02-11T07:18:37.048Z,100630.95
2019-02-11T07:21:18.672Z,100611.19
2019-02-11T07:24:08.106Z,100646.66
2019-02-11T07:26:50.957Z,100620.88
2019-02-11T07:32:43.675Z,100664.63
2019-02-11T07:38:36.031Z,100644.03
2019-02-11T07:44:29.948Z,100668.98
2019-02-11T07:47:19.780Z,100701.53
2019-02-11T07:50:01.731Z,100680.31
2019-02-11T07:55:51.857Z,100720.16
2019-02-11T07:58:22.122Z,100722.09
2019-02-11T08:01:11.686Z,100728.24
2019-02-11T08:03:57.599Z,100731.47
2019-02-11T08:06:39.854Z,100714.01
2019-02-11T08:12:30.927Z,100742.84
2019-02-11T08:18:23.390Z,100721.31
2019-02-11T08:24:15.642Z,100761.16
2019-02-11T08:30:08.241Z,100785.61
2019-02-11T08:32:58.046Z,100786.73
2019-02-11T08:35:41.626Z,100774.11
2019-02-11T08:41:37.653Z,100776.98
2019-02-11T08:44:27.326Z,100774.91
2019-02-11T08:47:16.881Z,100765.86
2019-02-11T08:55:50.945Z,100824.34
2019-02-11T08:58:40.310Z,100802.27
2019-02-11T09:01:22.185Z,100810.38
2019-02-11T09:04:18.807Z,100813.80
2019-02-11T09:07:03.204Z,100819.80
2019-02-11T09:09:45.510Z,100849.16
2019-02-11T09:15:23.847Z,100869.89
2019-02-11T09:18:13.212Z,100854.02
2019-02-11T09:20:55.557Z,100858.86
2019-02-11T09:26:47.203Z,100862.59
2019-02-11T09:29:36.581Z,100874.09
2019-02-11T09:32:20.919Z,100899.23
2019-02-11T09:38:11.331Z,100893.39
2019-02-11T09:41:00.683Z,100903.10
2019-02-11T09:43:42.587Z,100935.88
2019-02-11T09:46:12.828Z,100948.67
2019-02-11T09:51:58.228Z,100931.32
2019-02-11T09:54:40.382Z,100962.97
2019-02-11T09:57:29.759Z,100932.80
2019-02-11T10:00:12.226Z,100930.52
2019-02-11T10:06:02.536Z,100939.45
2019-02-11T10:11:57.070Z,100990.05
2019-02-11T10:14:46.689Z,100961.17
2019-02-11T10:17:30.012Z,100991.84
2019-02-11T10:23:20.006Z,101008.48
2019-02-11T10:26:09.619Z,101005.91
2019-02-11T10:28:51.804Z,101011.33
2019-02-11T10:34:48.246Z,101036.74
2019-02-11T10:40:46.695Z,101075.06
2019-02-11T10:43:16.594Z,101080.08
2019-02-11T10:46:06.387Z,101056.82
2019-02-11T10:48:48.873Z,101071.25
2019-02-11T10:51:38.302Z,101111.70
2019-02-11T10:54:21.879Z,101093.14
2019-02-11T10:57:04.035Z,101130.12
2019-02-11T10:59:53.387Z,101106.38
2019-02-11T11:05:18.600Z,101124.08
2019-02-11T11:08:00.518Z,101127.09
2019-02-11T11:10:49.826Z,101151.33
2019-02-11T11:13:39.388Z,101131.00
2019-02-11T11:16:29.194Z,101122.27
2019-02-11T11:19:31.578Z,101136.69
2019-02-11T11:22:01.815Z,101178.94
2019-02-11T11:24:51.233Z,101181.41
2019-02-11T11:27:32.742Z,101149.39
2019-02-11T11:33:11.095Z,101199.21
2019-02-11T11:36:00.553Z,101178.84
2019-02-11T11:38:44.368Z,101214.56
2019-02-11T11:44:24.973Z,101229.28
2019-02-11T11:47:14.630Z,101194.61
2019-02-11T11:49:56.731Z,101244.47
2019-02-11T11:55:33.679Z,101223.45
2019-02-11T11:58:26.685Z,101270.41
2019-02-11T12:01:07.108Z,101239.46
2019-02-11T12:06:47.417Z,101298.13
2019-02-11T12:09:30.733Z,101286.48
2019-02-11T12:15:15.052Z,101277.53
2019-02-11T12:17:46.499Z,101326.55
2019-02-11T12:20:36.233Z,101296.61
2019-02-11T12:23:17.901Z,101342.65
2019-02-11T12:26:07.319Z,101342.02
2019-02-11T12:28:48.919Z,101317.03
2019-02-11T12:34:28.626Z,101365.38
2019-02-11T12:37:17.979Z,101364.89
2019-02-11T12:40:00.555Z,101341.84
2019-02-11T12:42:52.633Z,101368.38
2019-02-11T12:45:34.531Z,101358.46
2019-02-11T12:51:25.130Z,101405.33
2019-02-11T12:54:14.868Z,101376.78
2019-02-11T12:56:56.964Z,101397.68
2019-02-11T12:59:46.676Z,101404.20
2019-02-11T13:02:28.583Z,101438.73
2019-02-11T13:05:22.189Z,101409.39
2019-02-11T13:08:02.182Z,101410.08
2019-02-11T13:10:44.752Z,101420.01
2019-02-11T13:13:34.483Z,101434.05
2019-02-11T13:16:16.363Z,101414.20
2019-02-11T13:19:05.760Z,101411.23
2019-02-11T13:21:50.404Z,101468.02
2019-02-11T13:24:39.811Z,101470.34
2019-02-11T13:27:21.516Z,101459.60
2019-02-11T13:30:31.017Z,101473.98
2019-02-11T13:33:15.296Z,101473.09
2019-02-11T13:36:04.691Z,101463.75
2019-02-11T13:38:46.514Z,101465.65
2019-02-11T13:41:36.159Z,101503.51
2019-02-11T13:44:19.604Z,101512.01
2019-02-11T13:47:09.001Z,101506.80
2019-02-11T13:49:50.852Z,101516.69
2019-02-11T13:55:30.572Z,101554.82
2019-02-11T13:58:19.261Z,101562.23
2019-02-11T14:01:02.739Z,101563.66
2019-02-11T14:03:52.227Z,101534.48
2019-02-11T14:06:34.493Z,101546.80
2019-02-11T14:09:38.233Z,101554.17
2019-02-11T14:12:08.188Z,101589.01
2019-02-11T14:15:00.629Z,101566.56
2019-02-11T14:17:44.095Z,101580.61
2019-02-11T14:20:33.479Z,101621.77
2019-02-11T14:23:15.696Z,101596.56
2019-02-11T14:26:05.093Z,101625.66
2019-02-11T14:28:49.669Z,101608.14
2019-02-11T14:34:32.836Z,101627.98
2019-02-11T14:37:22.181Z,101656.72
2019-02-11T14:40:04.061Z,101621.16
2019-02-11T14:45:57.089Z,101644.74
2019-02-11T14:48:47.286Z,101667.55
2019-02-11T14:51:29.115Z,101702.95
2019-02-11T14:54:20.494Z,101688.77
2019-02-11T14:57:11.351Z,101708.02
2019-02-11T14:59:53.589Z,101706.08
2019-02-11T15:02:42.936Z,101723.70
2019-02-11T15:05:24.919Z,101742.33
2019-02-11T15:08:14.822Z,101719.69
2019-02-11T15:10:56.932Z,101763.75
2019-02-11T15:13:39.725Z,101741.64
2019-02-11T15:16:29.333Z,101736.37
2019-02-11T15:19:20.962Z,101740.64
2019-02-11T15:22:03.767Z,101743.95
2019-02-11T15:24:53.464Z,101758.97
2019-02-11T15:27:39.915Z,101755.86
2019-02-11T15:30:21.777Z,101764.63
2019-02-11T15:33:11.411Z,101759.45
2019-02-11T15:35:54.195Z,101776.41
2019-02-11T15:41:46.657Z,101773.97
2019-02-11T15:44:36.013Z,101792.11
2019-02-11T15:47:18.836Z,101796.33
2019-02-11T15:50:09.660Z,101804.36
2019-02-11T15:52:51.364Z,101815.16
2019-02-11T15:55:40.681Z,101870.16
2019-02-11T15:58:23.438Z,101848.14
2019-02-11T16:01:13.049Z,101852.72
2019-02-11T16:03:54.662Z,101857.41
2019-02-11T16:06:44.000Z,101909.45
2019-02-11T16:09:25.916Z,101879.28
2019-02-11T16:15:16.633Z,101899.61
2019-02-11T16:18:06.208Z,101951.14
2019-02-11T16:20:48.381Z,101956.12
2019-02-11T16:23:18.641Z,101958.05
2019-02-11T16:29:05.429Z,101971.48
2019-02-11T16:31:49.498Z,101949.33
2019-02-11T16:34:38.836Z,101948.44
2019-02-11T16:37:22.967Z,101997.05
2019-02-11T16:40:28.606Z,102007.57
2019-02-11T16:43:00.417Z,102009.47
2019-02-11T16:45:50.052Z,102018.52
2019-02-11T16:48:31.911Z,102014.25
2019-02-11T16:51:21.495Z,101994.88
2019-02-11T16:54:07.222Z,102038.64
2019-02-11T16:59:57.772Z,102003.44
2019-02-11T17:02:28.040Z,102055.72
2019-02-11T17:05:17.752Z,102024.86
2019-02-11T17:08:07.155Z,102074.15
2019-02-11T17:10:51.835Z,102079.42
2019-02-11T17:13:42.475Z,102088.98
2019-02-11T17:16:25.173Z,102098.94
2019-02-11T17:19:14.822Z,102102.03
2019-02-11T17:21:58.867Z,102101.97
2019-02-11T17:24:48.569Z,102112.27
2019-02-11T17:30:19.691Z,102089.14
2019-02-11T17:33:01.776Z,102086.86
2019-02-11T17:35:51.327Z,102132.48
2019-02-11T17:41:16.865Z,102135.36
2019-02-11T17:44:06.249Z,102108.10
2019-02-11T17:49:58.022Z,102102.80
2019-02-11T17:55:47.847Z,102124.92
2019-02-11T18:01:59.747Z,102144.28
2019-02-11T18:04:49.134Z,102205.22
2019-02-11T18:07:31.309Z,102159.13
2019-02-11T18:10:20.911Z,102169.69
2019-02-11T18:13:02.414Z,102202.63
2019-02-11T18:15:54.467Z,102201.44
2019-02-11T18:18:36.758Z,102203.50
2019-02-11T18:24:26.991Z,102205.06
2019-02-11T18:27:16.341Z,102217.95
2019-02-11T18:29:58.618Z,102182.17
2019-02-11T18:32:28.876Z,102212.72
2019-02-11T18:35:18.279Z,102186.19
2019-02-11T18:40:59.460Z,102232.84
2019-02-11T18:46:52.276Z,102215.19
2019-02-11T18:49:41.380Z,102214.71
2019-02-11T18:52:23.479Z,102217.91
2019-02-11T18:54:53.911Z,102261.38
2019-02-11T18:57:43.525Z,102229.14
2019-02-11T19:00:25.273Z,102237.59
2019-02-11T19:03:14.944Z,102232.97
2019-02-11T19:05:57.471Z,102230.00
2019-02-11T19:08:47.316Z,102236.80
2019-02-11T19:11:30.243Z,102269.94
2019-02-11T19:14:20.052Z,102241.44
2019-02-11T19:17:02.993Z,102279.72
2019-02-11T19:19:52.573Z,102252.80
2019-02-11T19:22:35.168Z,102260.56
2019-02-11T19:25:21.214Z,102271.25
2019-02-11T19:31:05.515Z,102298.56
2019-02-11T19:33:47.360Z,102274.98
2019-02-11T19:36:29.319Z,102264.45
2019-02-11T19:39:18.971Z,102266.55
2019-02-11T19:42:01.389Z,102266.11
2019-02-11T19:44:51.083Z,102267.89
2019-02-11T19:47:33.247Z,102277.69
2019-02-11T19:50:22.878Z,102317.80
2019-02-11T19:53:04.508Z,102318.78
2019-02-11T19:55:54.117Z,102285.39
2019-02-11T19:58:36.371Z,102286.89
2019-02-11T20:04:26.648Z,102299.68
2019-02-11T20:07:15.957Z,102332.13
2019-02-11T20:09:57.737Z,102311.19
2019-02-11T20:12:47.665Z,102340.95
2019-02-11T20:15:29.889Z,102306.67
2019-02-11T20:18:20.107Z,102348.34
2019-02-11T20:21:01.827Z,102312.47
2019-02-11T20:23:52.214Z,102359.16
2019-02-11T20:26:34.325Z,102371.77
2019-02-11T20:29:24.472Z,102373.95
2019-02-11T20:32:06.611Z,102375.72
2019-02-11T20:37:28.796Z,102373.33
2019-02-11T20:40:19.770Z,102342.37
2019-02-11T20:43:02.381Z,102355.08
2019-02-11T20:45:52.075Z,102394.94
2019-02-11T20:48:34.450Z,102371.27
2019-02-11T20:54:11.356Z,102412.41
2019-02-11T20:57:01.040Z,102378.56
2019-02-11T20:59:43.385Z,102414.90
2019-02-11T21:05:46.328Z,102407.66
2019-02-11T21:08:28.767Z,102374.99
2019-02-11T21:11:18.705Z,102382.70
2019-02-11T21:14:00.526Z,102415.59
2019-02-11T21:16:49.896Z,102405.66
2019-02-11T21:19:32.558Z,102387.54
2019-02-11T21:22:21.945Z,102423.67
2019-02-11T21:25:04.050Z,102427.86
2019-02-11T21:27:53.695Z,102405.77
2019-02-11T21:30:35.563Z,102439.34
2019-02-11T21:36:26.260Z,102411.96
2019-02-11T21:39:09.070Z,102410.83
2019-02-11T21:44:46.254Z,102437.05
2019-02-11T21:47:35.641Z,102420.37
2019-02-11T21:50:26.106Z,102430.34
2019-02-11T21:53:09.408Z,102420.39
2019-02-11T21:55:50.997Z,102419.44
2019-02-11T21:58:40.421Z,102421.19
2019-02-11T22:01:22.816Z,102464.08
2019-02-11T22:04:12.492Z,102463.08
2019-02-11T22:06:55.538Z,102465.23
2019-02-11T22:09:45.320Z,102468.95
2019-02-11T22:12:27.729Z,102483.02
2019-02-11T22:15:10.279Z,102486.12
2019-02-11T22:17:59.603Z,102487.29
2019-02-11T22:20:42.006Z,102457.66
2019-02-11T22:26:33.029Z,102447.38
2019-02-11T22:29:22.858Z,102457.80
2019-02-11T22:32:05.114Z,102484.83
2019-02-11T22:34:54.488Z,102465.34
2019-02-11T22:37:36.406Z,102484.65
2019-02-11T22:40:18.717Z,102509.36
2019-02-11T22:43:08.388Z,102518.81
2019-02-11T22:45:50.790Z,102487.75
2019-02-11T22:51:28.526Z,102484.30
2019-02-11T22:57:05.572Z,102488.23
2019-02-11T22:59:54.968Z,102519.33
2019-02-11T23:02:40.222Z,102482.63
2019-02-11T23:08:35.858Z,102486.28
2019-02-11T23:14:07.619Z,102490.84
2019-02-11T23:16:57.276Z,102486.59
2019-02-11T23:19:38.946Z,102491.52
2019-02-11T23:25:29.385Z,102553.69
2019-02-11T23:28:18.999Z,102553.73
2019-02-11T23:31:01.623Z,102526.58
2019-02-11T23:36:51.626Z,102521.94
2019-02-11T23:39:37.508Z,102505.06
2019-02-11T23:42:20.294Z,102498.85
2019-02-11T23:48:11.159Z,102503.91
2019-02-11T23:51:20.016Z,102524.01
2019-02-11T23:54:02.362Z,102522.46
2019-02-11T23:59:53.049Z,102532.24
